sensor_id;sensor_type;location;lat;lon;timestamp;P1;durP1;ratioP1;P2;durP2;ratioP2
35442;SDS011;21561;55.654;37.592;2023-09-30T00:00:58;22.65;;;8.93;;
35442;SDS011;21561;55.654;37.592;2023-09-30T00:03:25;22.10;;;8.25;;
35442;SDS011;21561;55.654;37.592;2023-09-30T00:05:52;21.60;;;8.10;;
35442;SDS011;21561;55.654;37.592;2023-09-30T00:08:19;22.05;;;8.77;;
35442;SDS011;21561;55.654;37.592;2023-09-30T00:10:46;19.52;;;7.80;;
35442;SDS011;21561;55.654;37.592;2023-09-30T00:13:14;23.30;;;9.13;;
35442;SDS011;21561;55.654;37.592;2023-09-30T00:15:40;21.20;;;8.15;;
35442;SDS011;21561;55.654;37.592;2023-09-30T00:18:07;21.77;;;8.65;;
35442;SDS011;21561;55.654;37.592;2023-09-30T00:20:35;21.25;;;8.68;;
35442;SDS011;21561;55.654;37.592;2023-09-30T00:23:02;22.17;;;8.50;;
35442;SDS011;21561;55.654;37.592;2023-09-30T00:25:29;18.83;;;8.07;;
35442;SDS011;21561;55.654;37.592;2023-09-30T00:27:56;19.77;;;7.53;;
35442;SDS011;21561;55.654;37.592;2023-09-30T00:30:23;18.65;;;8.18;;
35442;SDS011;21561;55.654;37.592;2023-09-30T00:32:50;23.65;;;8.30;;
35442;SDS011;21561;55.654;37.592;2023-09-30T00:35:17;19.88;;;8.27;;
35442;SDS011;21561;55.654;37.592;2023-09-30T00:37:45;18.75;;;8.57;;
35442;SDS011;21561;55.654;37.592;2023-09-30T00:40:11;19.63;;;8.82;;
35442;SDS011;21561;55.654;37.592;2023-09-30T00:42:40;22.58;;;8.25;;
35442;SDS011;21561;55.654;37.592;2023-09-30T00:45:08;19.92;;;8.27;;
35442;SDS011;21561;55.654;37.592;2023-09-30T00:47:37;19.05;;;8.18;;
35442;SDS011;21561;55.654;37.592;2023-09-30T00:50:04;18.48;;;8.02;;
35442;SDS011;21561;55.654;37.592;2023-09-30T00:52:34;26.70;;;8.88;;
35442;SDS011;21561;55.654;37.592;2023-09-30T00:55:02;20.85;;;8.40;;
35442;SDS011;21561;55.654;37.592;2023-09-30T00:57:30;21.77;;;8.75;;
35442;SDS011;21561;55.654;37.592;2023-09-30T00:59:57;21.10;;;8.05;;
35442;SDS011;21561;55.654;37.592;2023-09-30T01:02:26;23.65;;;8.68;;
35442;SDS011;21561;55.654;37.592;2023-09-30T01:04:53;22.75;;;8.57;;
35442;SDS011;21561;55.654;37.592;2023-09-30T01:07:21;18.38;;;7.93;;
35442;SDS011;21561;55.654;37.592;2023-09-30T01:09:48;23.70;;;8.18;;
35442;SDS011;21561;55.654;37.592;2023-09-30T01:12:22;22.42;;;8.60;;
35442;SDS011;21561;55.654;37.592;2023-09-30T01:14:49;22.92;;;8.88;;
35442;SDS011;21561;55.654;37.592;2023-09-30T01:17:15;21.60;;;9.02;;
35442;SDS011;21561;55.654;37.592;2023-09-30T01:19:43;21.83;;;9.20;;
35442;SDS011;21561;55.654;37.592;2023-09-30T01:22:10;20.05;;;8.65;;
35442;SDS011;21561;55.654;37.592;2023-09-30T01:24:40;19.58;;;8.68;;
35442;SDS011;21561;55.654;37.592;2023-09-30T01:27:08;29.80;;;8.77;;
35442;SDS011;21561;55.654;37.592;2023-09-30T01:29:36;21.08;;;8.35;;
35442;SDS011;21561;55.654;37.592;2023-09-30T01:32:05;21.65;;;8.88;;
35442;SDS011;21561;55.654;37.592;2023-09-30T01:34:36;25.58;;;9.80;;
35442;SDS011;21561;55.654;37.592;2023-09-30T01:37:03;28.60;;;8.90;;
35442;SDS011;21561;55.654;37.592;2023-09-30T01:39:31;20.98;;;9.30;;
35442;SDS011;21561;55.654;37.592;2023-09-30T01:41:59;20.42;;;8.38;;
35442;SDS011;21561;55.654;37.592;2023-09-30T01:44:26;22.23;;;8.77;;
35442;SDS011;21561;55.654;37.592;2023-09-30T01:46:53;19.13;;;8.18;;
35442;SDS011;21561;55.654;37.592;2023-09-30T01:49:20;21.77;;;8.27;;
35442;SDS011;21561;55.654;37.592;2023-09-30T01:51:50;20.92;;;8.32;;
35442;SDS011;21561;55.654;37.592;2023-09-30T01:54:17;20.92;;;8.35;;
35442;SDS011;21561;55.654;37.592;2023-09-30T01:56:44;19.35;;;8.40;;
35442;SDS011;21561;55.654;37.592;2023-09-30T01:59:11;19.55;;;8.60;;
35442;SDS011;21561;55.654;37.592;2023-09-30T02:01:38;21.65;;;8.88;;
35442;SDS011;21561;55.654;37.592;2023-09-30T02:04:04;20.73;;;8.07;;
35442;SDS011;21561;55.654;37.592;2023-09-30T02:06:33;19.65;;;8.23;;
35442;SDS011;21561;55.654;37.592;2023-09-30T02:09:01;19.95;;;8.25;;
35442;SDS011;21561;55.654;37.592;2023-09-30T02:11:29;18.85;;;8.13;;
35442;SDS011;21561;55.654;37.592;2023-09-30T02:13:56;19.02;;;7.82;;
35442;SDS011;21561;55.654;37.592;2023-09-30T02:16:23;22.63;;;8.07;;
35442;SDS011;21561;55.654;37.592;2023-09-30T02:18:51;21.02;;;8.13;;
35442;SDS011;21561;55.654;37.592;2023-09-30T02:21:18;19.52;;;8.27;;
35442;SDS011;21561;55.654;37.592;2023-09-30T02:23:45;23.27;;;8.80;;
35442;SDS011;21561;55.654;37.592;2023-09-30T02:26:14;18.15;;;7.90;;
35442;SDS011;21561;55.654;37.592;2023-09-30T02:28:41;21.95;;;8.10;;
35442;SDS011;21561;55.654;37.592;2023-09-30T02:31:08;21.40;;;8.23;;
35442;SDS011;21561;55.654;37.592;2023-09-30T02:33:35;20.27;;;7.93;;
35442;SDS011;21561;55.654;37.592;2023-09-30T02:36:03;19.70;;;8.10;;
35442;SDS011;21561;55.654;37.592;2023-09-30T02:38:33;18.92;;;8.48;;
35442;SDS011;21561;55.654;37.592;2023-09-30T02:41:00;21.75;;;8.73;;
35442;SDS011;21561;55.654;37.592;2023-09-30T02:43:29;23.80;;;8.10;;
35442;SDS011;21561;55.654;37.592;2023-09-30T02:45:55;22.30;;;8.82;;
35442;SDS011;21561;55.654;37.592;2023-09-30T02:48:22;20.10;;;8.23;;
35442;SDS011;21561;55.654;37.592;2023-09-30T02:50:49;21.88;;;8.75;;
35442;SDS011;21561;55.654;37.592;2023-09-30T02:53:16;19.88;;;8.40;;
35442;SDS011;21561;55.654;37.592;2023-09-30T02:55:43;22.20;;;9.05;;
35442;SDS011;21561;55.654;37.592;2023-09-30T02:58:10;21.80;;;8.13;;
35442;SDS011;21561;55.654;37.592;2023-09-30T03:00:37;22.08;;;8.95;;
35442;SDS011;21561;55.654;37.592;2023-09-30T03:03:05;21.35;;;8.85;;
35442;SDS011;21561;55.654;37.592;2023-09-30T03:05:32;21.73;;;9.40;;
35442;SDS011;21561;55.654;37.592;2023-09-30T03:08:00;23.50;;;9.23;;
35442;SDS011;21561;55.654;37.592;2023-09-30T03:10:30;21.98;;;9.68;;
35442;SDS011;21561;55.654;37.592;2023-09-30T03:12:57;18.75;;;9.18;;
35442;SDS011;21561;55.654;37.592;2023-09-30T03:15:30;21.20;;;9.40;;
35442;SDS011;21561;55.654;37.592;2023-09-30T03:17:58;20.67;;;9.07;;
35442;SDS011;21561;55.654;37.592;2023-09-30T03:20:26;21.00;;;9.65;;
35442;SDS011;21561;55.654;37.592;2023-09-30T03:22:53;19.35;;;9.50;;
35442;SDS011;21561;55.654;37.592;2023-09-30T03:25:20;21.02;;;9.30;;
35442;SDS011;21561;55.654;37.592;2023-09-30T03:27:48;18.23;;;8.10;;
35442;SDS011;21561;55.654;37.592;2023-09-30T03:30:16;21.77;;;8.82;;
35442;SDS011;21561;55.654;37.592;2023-09-30T03:32:46;18.42;;;9.13;;
35442;SDS011;21561;55.654;37.592;2023-09-30T03:35:14;24.50;;;9.25;;
35442;SDS011;21561;55.654;37.592;2023-09-30T03:37:45;21.30;;;9.43;;
35442;SDS011;21561;55.654;37.592;2023-09-30T03:40:13;20.67;;;9.50;;
35442;SDS011;21561;55.654;37.592;2023-09-30T03:42:47;21.63;;;9.60;;
35442;SDS011;21561;55.654;37.592;2023-09-30T03:45:17;23.10;;;9.50;;
35442;SDS011;21561;55.654;37.592;2023-09-30T03:47:45;24.25;;;10.02;;
35442;SDS011;21561;55.654;37.592;2023-09-30T03:50:14;22.77;;;10.20;;
35442;SDS011;21561;55.654;37.592;2023-09-30T03:52:42;19.27;;;9.50;;
35442;SDS011;21561;55.654;37.592;2023-09-30T03:55:14;18.92;;;9.13;;
35442;SDS011;21561;55.654;37.592;2023-09-30T03:57:44;21.60;;;9.32;;
35442;SDS011;21561;55.654;37.592;2023-09-30T04:00:14;21.27;;;10.02;;
35442;SDS011;21561;55.654;37.592;2023-09-30T04:02:50;19.58;;;9.00;;
35442;SDS011;21561;55.654;37.592;2023-09-30T04:05:22;22.45;;;10.00;;
35442;SDS011;21561;55.654;37.592;2023-09-30T04:07:53;24.05;;;9.82;;
35442;SDS011;21561;55.654;37.592;2023-09-30T04:10:20;20.92;;;9.52;;
35442;SDS011;21561;55.654;37.592;2023-09-30T04:12:49;22.65;;;9.45;;
35442;SDS011;21561;55.654;37.592;2023-09-30T04:15:16;22.55;;;10.80;;
35442;SDS011;21561;55.654;37.592;2023-09-30T04:17:44;21.77;;;9.43;;
35442;SDS011;21561;55.654;37.592;2023-09-30T04:20:11;21.23;;;10.20;;
35442;SDS011;21561;55.654;37.592;2023-09-30T04:22:45;24.13;;;10.10;;
35442;SDS011;21561;55.654;37.592;2023-09-30T04:25:15;25.38;;;10.77;;
35442;SDS011;21561;55.654;37.592;2023-09-30T04:27:44;20.85;;;10.02;;
35442;SDS011;21561;55.654;37.592;2023-09-30T04:30:12;24.58;;;10.40;;
35442;SDS011;21561;55.654;37.592;2023-09-30T04:32:41;22.50;;;10.27;;
35442;SDS011;21561;55.654;37.592;2023-09-30T04:35:09;20.83;;;10.00;;
35442;SDS011;21561;55.654;37.592;2023-09-30T04:37:36;21.05;;;9.60;;
35442;SDS011;21561;55.654;37.592;2023-09-30T04:40:04;22.70;;;10.75;;
35442;SDS011;21561;55.654;37.592;2023-09-30T04:42:42;19.73;;;9.63;;
35442;SDS011;21561;55.654;37.592;2023-09-30T04:45:11;24.10;;;10.43;;
35442;SDS011;21561;55.654;37.592;2023-09-30T04:47:38;25.05;;;9.88;;
35442;SDS011;21561;55.654;37.592;2023-09-30T04:50:06;23.48;;;9.82;;
35442;SDS011;21561;55.654;37.592;2023-09-30T04:52:34;20.30;;;9.73;;
35442;SDS011;21561;55.654;37.592;2023-09-30T04:55:02;22.27;;;9.75;;
35442;SDS011;21561;55.654;37.592;2023-09-30T04:57:32;21.08;;;10.20;;
35442;SDS011;21561;55.654;37.592;2023-09-30T04:59:59;21.92;;;9.05;;
35442;SDS011;21561;55.654;37.592;2023-09-30T05:02:26;21.98;;;9.82;;
35442;SDS011;21561;55.654;37.592;2023-09-30T05:04:54;20.35;;;9.65;;
35442;SDS011;21561;55.654;37.592;2023-09-30T05:07:21;23.55;;;9.98;;
35442;SDS011;21561;55.654;37.592;2023-09-30T05:09:50;23.67;;;9.77;;
35442;SDS011;21561;55.654;37.592;2023-09-30T05:12:17;22.75;;;10.48;;
35442;SDS011;21561;55.654;37.592;2023-09-30T05:14:44;21.17;;;10.07;;
35442;SDS011;21561;55.654;37.592;2023-09-30T05:17:11;24.88;;;9.82;;
35442;SDS011;21561;55.654;37.592;2023-09-30T05:19:39;24.63;;;9.70;;
35442;SDS011;21561;55.654;37.592;2023-09-30T05:22:06;22.30;;;9.93;;
35442;SDS011;21561;55.654;37.592;2023-09-30T05:24:33;26.27;;;10.02;;
35442;SDS011;21561;55.654;37.592;2023-09-30T05:27:01;19.95;;;9.73;;
35442;SDS011;21561;55.654;37.592;2023-09-30T05:29:29;21.98;;;9.43;;
35442;SDS011;21561;55.654;37.592;2023-09-30T05:31:56;22.80;;;9.23;;
35442;SDS011;21561;55.654;37.592;2023-09-30T05:34:22;22.10;;;9.15;;
35442;SDS011;21561;55.654;37.592;2023-09-30T05:36:50;19.60;;;9.02;;
35442;SDS011;21561;55.654;37.592;2023-09-30T05:39:18;24.50;;;10.32;;
35442;SDS011;21561;55.654;37.592;2023-09-30T05:41:46;22.83;;;9.60;;
35442;SDS011;21561;55.654;37.592;2023-09-30T05:44:13;22.02;;;9.85;;
35442;SDS011;21561;55.654;37.592;2023-09-30T05:46:41;21.73;;;9.70;;
35442;SDS011;21561;55.654;37.592;2023-09-30T05:49:09;24.67;;;9.43;;
35442;SDS011;21561;55.654;37.592;2023-09-30T05:51:40;19.85;;;9.68;;
35442;SDS011;21561;55.654;37.592;2023-09-30T05:54:07;25.25;;;9.75;;
35442;SDS011;21561;55.654;37.592;2023-09-30T05:56:36;20.95;;;10.13;;
35442;SDS011;21561;55.654;37.592;2023-09-30T05:59:09;21.45;;;9.50;;
35442;SDS011;21561;55.654;37.592;2023-09-30T06:01:36;21.30;;;9.10;;
35442;SDS011;21561;55.654;37.592;2023-09-30T06:04:04;19.88;;;9.20;;
35442;SDS011;21561;55.654;37.592;2023-09-30T06:06:31;28.95;;;9.27;;
35442;SDS011;21561;55.654;37.592;2023-09-30T06:08:59;23.40;;;9.20;;
35442;SDS011;21561;55.654;37.592;2023-09-30T06:11:26;18.10;;;8.75;;
35442;SDS011;21561;55.654;37.592;2023-09-30T06:13:56;21.88;;;8.73;;
35442;SDS011;21561;55.654;37.592;2023-09-30T06:16:27;23.75;;;8.98;;
35442;SDS011;21561;55.654;37.592;2023-09-30T06:18:54;25.88;;;9.00;;
35442;SDS011;21561;55.654;37.592;2023-09-30T06:21:23;19.20;;;8.63;;
35442;SDS011;21561;55.654;37.592;2023-09-30T06:23:51;23.80;;;9.23;;
35442;SDS011;21561;55.654;37.592;2023-09-30T06:26:18;23.67;;;9.18;;
35442;SDS011;21561;55.654;37.592;2023-09-30T06:28:45;22.73;;;9.07;;
35442;SDS011;21561;55.654;37.592;2023-09-30T06:31:11;20.10;;;9.52;;
35442;SDS011;21561;55.654;37.592;2023-09-30T06:33:39;23.63;;;9.48;;
35442;SDS011;21561;55.654;37.592;2023-09-30T06:36:09;21.55;;;9.48;;
35442;SDS011;21561;55.654;37.592;2023-09-30T06:38:37;19.33;;;8.95;;
35442;SDS011;21561;55.654;37.592;2023-09-30T06:41:04;24.50;;;8.98;;
35442;SDS011;21561;55.654;37.592;2023-09-30T06:43:32;22.40;;;9.48;;
35442;SDS011;21561;55.654;37.592;2023-09-30T06:45:59;23.25;;;9.27;;
35442;SDS011;21561;55.654;37.592;2023-09-30T06:48:31;21.73;;;9.07;;
35442;SDS011;21561;55.654;37.592;2023-09-30T06:50:58;22.55;;;9.57;;
35442;SDS011;21561;55.654;37.592;2023-09-30T06:53:26;21.33;;;9.18;;
35442;SDS011;21561;55.654;37.592;2023-09-30T06:55:53;26.80;;;9.27;;
35442;SDS011;21561;55.654;37.592;2023-09-30T06:58:20;23.40;;;9.82;;
35442;SDS011;21561;55.654;37.592;2023-09-30T07:00:49;26.23;;;9.82;;
35442;SDS011;21561;55.654;37.592;2023-09-30T07:03:17;24.92;;;9.10;;
35442;SDS011;21561;55.654;37.592;2023-09-30T07:05:49;26.27;;;9.15;;
35442;SDS011;21561;55.654;37.592;2023-09-30T07:08:16;21.08;;;9.65;;
35442;SDS011;21561;55.654;37.592;2023-09-30T07:10:44;29.35;;;9.52;;
35442;SDS011;21561;55.654;37.592;2023-09-30T07:13:12;23.30;;;10.00;;
35442;SDS011;21561;55.654;37.592;2023-09-30T07:15:39;21.98;;;9.75;;
35442;SDS011;21561;55.654;37.592;2023-09-30T07:18:06;21.88;;;10.20;;
35442;SDS011;21561;55.654;37.592;2023-09-30T07:20:33;22.75;;;9.90;;
35442;SDS011;21561;55.654;37.592;2023-09-30T07:23:00;22.80;;;10.30;;
35442;SDS011;21561;55.654;37.592;2023-09-30T07:25:43;25.40;;;10.63;;
35442;SDS011;21561;55.654;37.592;2023-09-30T07:28:10;26.27;;;11.05;;
35442;SDS011;21561;55.654;37.592;2023-09-30T07:30:39;24.55;;;10.65;;
35442;SDS011;21561;55.654;37.592;2023-09-30T07:33:06;23.00;;;10.13;;
35442;SDS011;21561;55.654;37.592;2023-09-30T07:35:33;18.45;;;9.32;;
35442;SDS011;21561;55.654;37.592;2023-09-30T07:38:01;23.98;;;9.13;;
35442;SDS011;21561;55.654;37.592;2023-09-30T07:40:29;23.90;;;10.30;;
35442;SDS011;21561;55.654;37.592;2023-09-30T07:42:56;21.98;;;9.60;;
35442;SDS011;21561;55.654;37.592;2023-09-30T07:45:24;25.15;;;9.40;;
35442;SDS011;21561;55.654;37.592;2023-09-30T07:47:51;19.45;;;8.48;;
35442;SDS011;21561;55.654;37.592;2023-09-30T07:50:18;23.95;;;9.23;;
35442;SDS011;21561;55.654;37.592;2023-09-30T07:52:45;21.77;;;9.30;;
35442;SDS011;21561;55.654;37.592;2023-09-30T07:55:13;21.50;;;9.07;;
35442;SDS011;21561;55.654;37.592;2023-09-30T07:57:40;22.98;;;8.70;;
35442;SDS011;21561;55.654;37.592;2023-09-30T08:00:09;22.60;;;8.75;;
35442;SDS011;21561;55.654;37.592;2023-09-30T08:02:42;22.70;;;8.73;;
35442;SDS011;21561;55.654;37.592;2023-09-30T08:05:09;20.83;;;7.85;;
35442;SDS011;21561;55.654;37.592;2023-09-30T08:07:36;23.95;;;8.80;;
35442;SDS011;21561;55.654;37.592;2023-09-30T08:10:03;22.70;;;8.70;;
35442;SDS011;21561;55.654;37.592;2023-09-30T08:12:33;18.42;;;8.05;;
35442;SDS011;21561;55.654;37.592;2023-09-30T08:15:00;22.55;;;8.00;;
35442;SDS011;21561;55.654;37.592;2023-09-30T08:17:30;21.67;;;8.57;;
35442;SDS011;21561;55.654;37.592;2023-09-30T08:19:57;22.52;;;8.02;;
35442;SDS011;21561;55.654;37.592;2023-09-30T08:22:24;20.77;;;8.23;;
35442;SDS011;21561;55.654;37.592;2023-09-30T08:24:54;22.80;;;8.15;;
35442;SDS011;21561;55.654;37.592;2023-09-30T08:27:21;22.10;;;8.07;;
35442;SDS011;21561;55.654;37.592;2023-09-30T08:29:50;19.48;;;8.30;;
35442;SDS011;21561;55.654;37.592;2023-09-30T08:32:17;18.30;;;8.07;;
35442;SDS011;21561;55.654;37.592;2023-09-30T08:34:43;28.25;;;8.10;;
35442;SDS011;21561;55.654;37.592;2023-09-30T08:37:10;22.70;;;8.35;;
35442;SDS011;21561;55.654;37.592;2023-09-30T08:39:38;20.25;;;8.65;;
35442;SDS011;21561;55.654;37.592;2023-09-30T08:42:08;18.00;;;7.20;;
35442;SDS011;21561;55.654;37.592;2023-09-30T08:44:42;22.50;;;7.90;;
35442;SDS011;21561;55.654;37.592;2023-09-30T08:47:09;17.92;;;7.22;;
35442;SDS011;21561;55.654;37.592;2023-09-30T08:49:37;17.95;;;7.55;;
35442;SDS011;21561;55.654;37.592;2023-09-30T08:52:09;18.65;;;7.20;;
35442;SDS011;21561;55.654;37.592;2023-09-30T08:54:37;22.70;;;7.47;;
35442;SDS011;21561;55.654;37.592;2023-09-30T08:57:04;18.00;;;6.88;;
35442;SDS011;21561;55.654;37.592;2023-09-30T08:59:34;17.25;;;7.72;;
35442;SDS011;21561;55.654;37.592;2023-09-30T09:02:07;18.42;;;7.43;;
35442;SDS011;21561;55.654;37.592;2023-09-30T09:04:35;26.70;;;7.63;;
35442;SDS011;21561;55.654;37.592;2023-09-30T09:07:03;19.02;;;7.43;;
35442;SDS011;21561;55.654;37.592;2023-09-30T09:09:30;24.55;;;8.05;;
35442;SDS011;21561;55.654;37.592;2023-09-30T09:11:57;14.68;;;6.35;;
35442;SDS011;21561;55.654;37.592;2023-09-30T09:14:37;18.10;;;7.45;;
35442;SDS011;21561;55.654;37.592;2023-09-30T09:17:06;20.48;;;7.13;;
35442;SDS011;21561;55.654;37.592;2023-09-30T09:19:34;17.77;;;7.53;;
35442;SDS011;21561;55.654;37.592;2023-09-30T09:22:02;23.00;;;6.93;;
35442;SDS011;21561;55.654;37.592;2023-09-30T09:24:34;21.52;;;7.38;;
35442;SDS011;21561;55.654;37.592;2023-09-30T09:27:09;21.17;;;7.18;;
35442;SDS011;21561;55.654;37.592;2023-09-30T09:29:43;20.30;;;7.38;;
35442;SDS011;21561;55.654;37.592;2023-09-30T09:32:13;18.15;;;6.82;;
35442;SDS011;21561;55.654;37.592;2023-09-30T09:34:59;15.13;;;6.38;;
35442;SDS011;21561;55.654;37.592;2023-09-30T09:37:31;23.42;;;7.70;;
35442;SDS011;21561;55.654;37.592;2023-09-30T09:39:59;16.48;;;7.00;;
35442;SDS011;21561;55.654;37.592;2023-09-30T09:42:31;18.33;;;7.50;;
35442;SDS011;21561;55.654;37.592;2023-09-30T09:45:04;18.90;;;6.88;;
35442;SDS011;21561;55.654;37.592;2023-09-30T09:47:33;20.15;;;7.35;;
35442;SDS011;21561;55.654;37.592;2023-09-30T09:50:11;19.02;;;7.07;;
35442;SDS011;21561;55.654;37.592;2023-09-30T09:52:42;21.27;;;7.82;;
35442;SDS011;21561;55.654;37.592;2023-09-30T09:55:12;18.40;;;7.13;;
35442;SDS011;21561;55.654;37.592;2023-09-30T09:57:41;23.67;;;8.02;;
35442;SDS011;21561;55.654;37.592;2023-09-30T10:00:21;19.20;;;7.63;;
35442;SDS011;21561;55.654;37.592;2023-09-30T10:02:56;21.52;;;7.15;;
35442;SDS011;21561;55.654;37.592;2023-09-30T10:05:23;18.20;;;7.18;;
35442;SDS011;21561;55.654;37.592;2023-09-30T10:10:23;15.90;;;6.65;;
35442;SDS011;21561;55.654;37.592;2023-09-30T10:12:51;20.08;;;7.68;;
35442;SDS011;21561;55.654;37.592;2023-09-30T10:18:01;21.48;;;7.50;;
35442;SDS011;21561;55.654;37.592;2023-09-30T10:20:34;18.10;;;7.47;;
35442;SDS011;21561;55.654;37.592;2023-09-30T10:26:15;18.55;;;7.07;;
35442;SDS011;21561;55.654;37.592;2023-09-30T10:28:45;21.75;;;7.63;;
35442;SDS011;21561;55.654;37.592;2023-09-30T10:31:17;23.05;;;7.80;;
35442;SDS011;21561;55.654;37.592;2023-09-30T10:36:38;22.38;;;7.10;;
35442;SDS011;21561;55.654;37.592;2023-09-30T10:39:10;17.70;;;7.40;;
35442;SDS011;21561;55.654;37.592;2023-09-30T10:41:50;18.30;;;7.00;;
35442;SDS011;21561;55.654;37.592;2023-09-30T10:46:59;17.02;;;7.82;;
35442;SDS011;21561;55.654;37.592;2023-09-30T10:49:48;18.80;;;7.93;;
35442;SDS011;21561;55.654;37.592;2023-09-30T10:52:22;20.85;;;8.20;;
35442;SDS011;21561;55.654;37.592;2023-09-30T10:54:54;20.15;;;7.88;;
35442;SDS011;21561;55.654;37.592;2023-09-30T10:57:36;22.70;;;8.30;;
35442;SDS011;21561;55.654;37.592;2023-09-30T11:00:09;23.33;;;8.18;;
35442;SDS011;21561;55.654;37.592;2023-09-30T11:02:49;18.08;;;7.63;;
35442;SDS011;21561;55.654;37.592;2023-09-30T11:05:29;20.55;;;8.10;;
35442;SDS011;21561;55.654;37.592;2023-09-30T11:08:17;16.83;;;7.72;;
35442;SDS011;21561;55.654;37.592;2023-09-30T11:10:50;20.55;;;7.88;;
35442;SDS011;21561;55.654;37.592;2023-09-30T11:13:21;20.92;;;8.68;;
35442;SDS011;21561;55.654;37.592;2023-09-30T11:16:02;21.27;;;9.13;;
35442;SDS011;21561;55.654;37.592;2023-09-30T11:18:37;18.38;;;7.40;;
35442;SDS011;21561;55.654;37.592;2023-09-30T11:21:11;19.55;;;8.07;;
35442;SDS011;21561;55.654;37.592;2023-09-30T11:23:42;18.67;;;7.60;;
35442;SDS011;21561;55.654;37.592;2023-09-30T11:26:11;21.45;;;8.18;;
35442;SDS011;21561;55.654;37.592;2023-09-30T11:28:44;18.00;;;8.23;;
35442;SDS011;21561;55.654;37.592;2023-09-30T11:31:12;23.98;;;8.40;;
35442;SDS011;21561;55.654;37.592;2023-09-30T11:36:21;16.33;;;7.75;;
35442;SDS011;21561;55.654;37.592;2023-09-30T11:38:50;21.17;;;8.80;;
35442;SDS011;21561;55.654;37.592;2023-09-30T11:41:22;18.55;;;7.95;;
35442;SDS011;21561;55.654;37.592;2023-09-30T11:44:08;19.95;;;7.93;;
35442;SDS011;21561;55.654;37.592;2023-09-30T11:46:53;19.60;;;8.13;;
35442;SDS011;21561;55.654;37.592;2023-09-30T11:49:35;20.13;;;7.97;;
35442;SDS011;21561;55.654;37.592;2023-09-30T11:52:06;25.52;;;8.25;;
35442;SDS011;21561;55.654;37.592;2023-09-30T11:54:41;22.92;;;8.07;;
35442;SDS011;21561;55.654;37.592;2023-09-30T11:57:12;20.92;;;8.27;;
35442;SDS011;21561;55.654;37.592;2023-09-30T11:59:46;17.70;;;7.47;;
35442;SDS011;21561;55.654;37.592;2023-09-30T12:02:14;22.52;;;8.68;;
35442;SDS011;21561;55.654;37.592;2023-09-30T12:04:48;24.77;;;8.15;;
35442;SDS011;21561;55.654;37.592;2023-09-30T12:07:22;22.35;;;8.23;;
35442;SDS011;21561;55.654;37.592;2023-09-30T12:09:50;18.13;;;8.27;;
35442;SDS011;21561;55.654;37.592;2023-09-30T12:12:18;17.55;;;8.00;;
35442;SDS011;21561;55.654;37.592;2023-09-30T12:14:46;18.95;;;8.55;;
35442;SDS011;21561;55.654;37.592;2023-09-30T12:17:13;19.98;;;8.63;;
35442;SDS011;21561;55.654;37.592;2023-09-30T12:19:45;19.25;;;7.85;;
35442;SDS011;21561;55.654;37.592;2023-09-30T12:22:17;20.88;;;8.75;;
35442;SDS011;21561;55.654;37.592;2023-09-30T12:24:48;24.48;;;8.27;;
35442;SDS011;21561;55.654;37.592;2023-09-30T12:27:24;17.70;;;8.00;;
35442;SDS011;21561;55.654;37.592;2023-09-30T12:29:57;21.42;;;8.05;;
35442;SDS011;21561;55.654;37.592;2023-09-30T12:32:25;22.77;;;8.57;;
35442;SDS011;21561;55.654;37.592;2023-09-30T12:34:53;20.20;;;8.10;;
35442;SDS011;21561;55.654;37.592;2023-09-30T12:37:20;22.08;;;7.55;;
35442;SDS011;21561;55.654;37.592;2023-09-30T12:39:48;22.65;;;8.48;;
35442;SDS011;21561;55.654;37.592;2023-09-30T12:42:18;19.13;;;7.95;;
35442;SDS011;21561;55.654;37.592;2023-09-30T12:44:46;20.67;;;8.07;;
35442;SDS011;21561;55.654;37.592;2023-09-30T12:47:14;19.83;;;8.02;;
35442;SDS011;21561;55.654;37.592;2023-09-30T12:49:45;19.30;;;7.70;;
35442;SDS011;21561;55.654;37.592;2023-09-30T12:52:15;16.92;;;7.80;;
35442;SDS011;21561;55.654;37.592;2023-09-30T12:54:45;21.67;;;7.90;;
35442;SDS011;21561;55.654;37.592;2023-09-30T12:57:28;18.92;;;7.75;;
35442;SDS011;21561;55.654;37.592;2023-09-30T12:59:58;21.42;;;8.15;;
35442;SDS011;21561;55.654;37.592;2023-09-30T13:02:31;18.87;;;7.40;;
35442;SDS011;21561;55.654;37.592;2023-09-30T13:05:01;17.48;;;7.65;;
35442;SDS011;21561;55.654;37.592;2023-09-30T13:07:35;22.50;;;8.35;;
35442;SDS011;21561;55.654;37.592;2023-09-30T13:10:03;20.13;;;7.47;;
35442;SDS011;21561;55.654;37.592;2023-09-30T13:12:32;19.30;;;7.60;;
35442;SDS011;21561;55.654;37.592;2023-09-30T13:15:03;18.03;;;7.57;;
35442;SDS011;21561;55.654;37.592;2023-09-30T13:17:32;19.75;;;7.70;;
35442;SDS011;21561;55.654;37.592;2023-09-30T13:20:02;17.00;;;7.75;;
35442;SDS011;21561;55.654;37.592;2023-09-30T13:22:31;20.27;;;7.70;;
35442;SDS011;21561;55.654;37.592;2023-09-30T13:25:00;16.88;;;7.20;;
35442;SDS011;21561;55.654;37.592;2023-09-30T13:27:28;16.83;;;7.10;;
35442;SDS011;21561;55.654;37.592;2023-09-30T13:29:55;19.73;;;7.60;;
35442;SDS011;21561;55.654;37.592;2023-09-30T13:32:25;18.50;;;7.68;;
35442;SDS011;21561;55.654;37.592;2023-09-30T13:34:52;21.02;;;7.55;;
35442;SDS011;21561;55.654;37.592;2023-09-30T13:37:19;23.42;;;7.57;;
35442;SDS011;21561;55.654;37.592;2023-09-30T13:39:46;18.75;;;7.90;;
35442;SDS011;21561;55.654;37.592;2023-09-30T13:42:12;21.23;;;7.70;;
35442;SDS011;21561;55.654;37.592;2023-09-30T13:44:40;17.92;;;7.80;;
35442;SDS011;21561;55.654;37.592;2023-09-30T13:47:06;16.08;;;7.35;;
35442;SDS011;21561;55.654;37.592;2023-09-30T13:49:34;19.45;;;7.50;;
35442;SDS011;21561;55.654;37.592;2023-09-30T13:52:01;19.27;;;7.10;;
35442;SDS011;21561;55.654;37.592;2023-09-30T13:54:28;18.05;;;7.70;;
35442;SDS011;21561;55.654;37.592;2023-09-30T13:56:55;19.83;;;9.18;;
35442;SDS011;21561;55.654;37.592;2023-09-30T13:59:22;17.17;;;7.85;;
35442;SDS011;21561;55.654;37.592;2023-09-30T14:01:50;19.02;;;7.45;;
35442;SDS011;21561;55.654;37.592;2023-09-30T14:04:16;21.20;;;9.02;;
35442;SDS011;21561;55.654;37.592;2023-09-30T14:06:43;18.88;;;7.95;;
35442;SDS011;21561;55.654;37.592;2023-09-30T14:09:10;22.50;;;9.75;;
35442;SDS011;21561;55.654;37.592;2023-09-30T14:12:01;19.55;;;7.93;;
35442;SDS011;21561;55.654;37.592;2023-09-30T14:14:31;18.85;;;7.03;;
35442;SDS011;21561;55.654;37.592;2023-09-30T14:16:59;17.50;;;7.47;;
35442;SDS011;21561;55.654;37.592;2023-09-30T14:19:26;19.35;;;7.72;;
35442;SDS011;21561;55.654;37.592;2023-09-30T14:21:55;20.98;;;7.00;;
35442;SDS011;21561;55.654;37.592;2023-09-30T14:24:23;18.70;;;7.68;;
35442;SDS011;21561;55.654;37.592;2023-09-30T14:26:49;21.23;;;7.85;;
35442;SDS011;21561;55.654;37.592;2023-09-30T14:29:16;25.92;;;8.30;;
35442;SDS011;21561;55.654;37.592;2023-09-30T14:31:43;22.30;;;8.50;;
35442;SDS011;21561;55.654;37.592;2023-09-30T14:34:10;19.73;;;7.45;;
35442;SDS011;21561;55.654;37.592;2023-09-30T14:36:37;21.67;;;8.00;;
35442;SDS011;21561;55.654;37.592;2023-09-30T14:39:04;19.35;;;7.82;;
35442;SDS011;21561;55.654;37.592;2023-09-30T14:41:40;20.60;;;8.18;;
35442;SDS011;21561;55.654;37.592;2023-09-30T14:44:07;20.38;;;8.02;;
35442;SDS011;21561;55.654;37.592;2023-09-30T14:46:34;20.38;;;8.35;;
35442;SDS011;21561;55.654;37.592;2023-09-30T14:49:01;22.58;;;8.20;;